Terminal Aerodrome Forecast
Issued by NWS

Home | Current Version | Previous Version | Text Only | Print | Product List | Glossary On
Versions: 1 2 3 4 5 6 7 8 9 10 11 12 13 14 15 16 17 18 19 20 21
142
FTUS44 KBMX 012004 AAA
TAFANB
TAF AMD
KANB 012004Z 0120/0218 23006KT P6SM VCSH BKN040
     FM012230 27012G20KT 3SM TSRA SCT025 BKN040CB
     FM020100 VRB04KT P6SM BKN100
     FM020900 VRB04KT P6SM BKN015=

USA.gov is the U.S. government's official web portal to all federal, state and local government web resources and services.